createdAt,value
2023-01-23T00:01:21.040Z,101105.84
2023-01-23T00:03:48.374Z,101110.84
2023-01-23T00:06:16.967Z,101115.09
2023-01-23T00:09:10.307Z,101118.72
2023-01-23T00:11:37.784Z,101119.44
2023-01-23T00:14:12.995Z,101128.03
2023-01-23T00:16:41.534Z,101128.00
2023-01-23T00:19:10.734Z,101127.84
2023-01-23T00:21:37.957Z,101130.53
2023-01-23T00:24:07.836Z,101130.47
2023-01-23T00:26:39.058Z,101127.94
2023-01-23T00:29:06.929Z,101116.84
2023-01-23T00:31:41.276Z,101124.63
2023-01-23T00:34:12.396Z,101124.53
2023-01-23T00:36:49.923Z,101129.00
2023-01-23T00:39:22.666Z,101132.38
2023-01-23T00:41:52.115Z,101140.53
2023-01-23T00:44:20.622Z,101145.09
2023-01-23T00:46:48.948Z,101159.19
2023-01-23T00:49:18.126Z,101168.59
2023-01-23T00:51:46.573Z,101168.13
2023-01-23T00:54:14.068Z,101165.88
2023-01-23T00:56:41.470Z,101174.31
2023-01-23T00:59:09.026Z,101180.47
2023-01-23T01:01:37.376Z,101179.59
2023-01-23T01:04:04.967Z,101181.50
2023-01-23T01:06:33.561Z,101173.09
2023-01-23T01:09:00.966Z,101172.41
2023-01-23T01:11:29.318Z,101180.38
2023-01-23T01:13:56.753Z,101191.50
2023-01-23T01:16:27.391Z,101192.38
2023-01-23T01:18:55.049Z,101189.69
2023-01-23T01:21:22.634Z,101194.00
2023-01-23T01:23:51.139Z,101187.25
2023-01-23T01:26:18.824Z,101198.66
2023-01-23T01:28:48.512Z,101199.31
2023-01-23T01:31:16.771Z,101209.56
2023-01-23T01:33:45.622Z,101199.16
2023-01-23T01:36:15.726Z,101201.03
2023-01-23T01:38:43.382Z,101206.97
2023-01-23T01:41:11.757Z,101202.69
2023-01-23T01:43:39.625Z,101203.59
2023-01-23T01:46:24.295Z,101209.72
2023-01-23T01:49:10.084Z,101208.38
2023-01-23T01:52:05.874Z,101208.25
2023-01-23T01:54:59.366Z,101212.44
2023-01-23T01:57:40.740Z,101209.84
2023-01-23T02:00:18.728Z,101209.81
2023-01-23T02:02:54.373Z,101207.16
2023-01-23T02:05:28.243Z,101212.53
2023-01-23T02:08:18.485Z,101218.50
2023-01-23T02:10:47.183Z,101219.47
2023-01-23T02:13:37.159Z,101212.59
2023-01-23T02:16:08.916Z,101217.81
2023-01-23T02:18:39.246Z,101223.66
2023-01-23T02:21:08.557Z,101218.44
2023-01-23T02:23:54.174Z,101218.50
2023-01-23T02:26:38.066Z,101222.34
2023-01-23T02:29:07.562Z,101228.34
2023-01-23T02:31:35.730Z,101224.66
2023-01-23T02:34:02.816Z,101220.22
2023-01-23T02:36:34.002Z,101220.16
2023-01-23T02:39:17.386Z,101215.00
2023-01-23T02:41:48.672Z,101222.69
2023-01-23T02:44:27.791Z,101211.50
2023-01-23T02:46:56.828Z,101223.03
2023-01-23T02:49:24.380Z,101226.66
2023-01-23T02:51:54.231Z,101218.88
2023-01-23T02:54:22.937Z,101223.03
2023-01-23T02:56:51.569Z,101228.34
2023-01-23T02:59:38.801Z,101236.25
2023-01-23T03:02:06.611Z,101234.47
2023-01-23T03:04:34.090Z,101237.72
2023-01-23T03:07:03.501Z,101243.00
2023-01-23T03:09:30.936Z,101242.94
2023-01-23T03:11:59.425Z,101244.78
2023-01-23T03:14:27.352Z,101250.84
2023-01-23T03:16:55.551Z,101249.75
2023-01-23T03:19:25.344Z,101244.38
2023-01-23T03:21:53.509Z,101253.06
2023-01-23T03:24:21.877Z,101247.94
2023-01-23T03:26:57.246Z,101252.34
2023-01-23T03:29:44.671Z,101254.22
2023-01-23T03:32:13.883Z,101256.03
2023-01-23T03:34:41.945Z,101254.13
2023-01-23T03:37:17.742Z,101264.53
2023-01-23T03:40:04.281Z,101261.94
2023-01-23T03:42:35.149Z,101269.06
2023-01-23T03:45:03.342Z,101269.78
2023-01-23T03:47:30.831Z,101264.63
2023-01-23T03:49:58.203Z,101267.44
2023-01-23T03:52:26.772Z,101265.56
2023-01-23T03:54:54.227Z,101275.84
2023-01-23T03:57:21.771Z,101273.47
2023-01-23T03:59:49.253Z,101277.75
2023-01-23T04:02:16.958Z,101271.72
2023-01-23T04:04:44.685Z,101262.97
2023-01-23T04:07:12.247Z,101266.22
2023-01-23T04:09:39.776Z,101269.81
2023-01-23T04:12:09.067Z,101269.00
2023-01-23T04:14:37.897Z,101267.16
2023-01-23T04:17:06.129Z,101269.06
2023-01-23T04:19:34.442Z,101268.19
2023-01-23T04:22:03.542Z,101263.66
2023-01-23T04:24:30.972Z,101264.22
2023-01-23T04:26:58.539Z,101277.81
2023-01-23T04:29:26.956Z,101276.50
2023-01-23T04:31:54.464Z,101278.19
2023-01-23T04:34:21.893Z,101279.69
2023-01-23T04:36:49.334Z,101270.91
2023-01-23T04:39:18.712Z,101286.47
2023-01-23T04:41:52.385Z,101293.19
2023-01-23T04:44:22.733Z,101283.66
2023-01-23T04:46:53.559Z,101283.56
2023-01-23T04:49:22.943Z,101282.97
2023-01-23T04:51:53.831Z,101281.38
2023-01-23T04:54:22.463Z,101286.34
2023-01-23T04:56:50.215Z,101292.34
2023-01-23T04:59:18.396Z,101300.16
2023-01-23T05:01:46.034Z,101295.63
2023-01-23T05:04:14.625Z,101298.44
2023-01-23T05:06:42.269Z,101295.88
2023-01-23T05:09:09.827Z,101309.91
2023-01-23T05:11:38.304Z,101311.63
2023-01-23T05:14:10.871Z,101312.38
2023-01-23T05:16:38.568Z,101314.00
2023-01-23T05:19:07.446Z,101313.09
2023-01-23T05:21:34.896Z,101318.28
2023-01-23T05:24:02.147Z,101309.72
2023-01-23T05:26:29.628Z,101305.56
2023-01-23T05:28:58.350Z,101310.94
2023-01-23T05:31:26.240Z,101314.44
2023-01-23T05:33:54.636Z,101302.34
2023-01-23T05:36:22.037Z,101301.47
2023-01-23T05:38:49.471Z,101309.13
2023-01-23T05:41:28.629Z,101312.00
2023-01-23T05:43:56.161Z,101317.13
2023-01-23T05:46:23.805Z,101311.22
2023-01-23T05:48:52.331Z,101320.75
2023-01-23T05:51:21.925Z,101329.34
2023-01-23T05:53:50.294Z,101325.00
2023-01-23T05:56:17.894Z,101321.47
2023-01-23T05:58:46.162Z,101336.97
2023-01-23T06:01:14.729Z,101338.94
2023-01-23T06:03:42.477Z,101352.81
2023-01-23T06:06:10.175Z,101354.47
2023-01-23T06:08:37.272Z,101358.84
2023-01-23T06:11:10.562Z,101357.97
2023-01-23T06:13:39.079Z,101366.59
2023-01-23T06:16:10.540Z,101374.34
2023-01-23T06:18:40.502Z,101380.25
2023-01-23T06:21:07.852Z,101376.88
2023-01-23T06:23:36.148Z,101374.22
2023-01-23T06:26:05.006Z,101387.25
2023-01-23T06:28:32.580Z,101399.41
2023-01-23T06:31:04.331Z,101407.84
2023-01-23T06:33:33.625Z,101410.25
2023-01-23T06:36:02.725Z,101419.13
2023-01-23T06:38:32.355Z,101415.00
2023-01-23T06:40:59.816Z,101426.28
2023-01-23T06:43:27.378Z,101433.91
2023-01-23T06:45:55.722Z,101432.19
2023-01-23T06:48:23.133Z,101438.41
2023-01-23T06:50:52.975Z,101437.56
2023-01-23T06:53:20.996Z,101433.22
2023-01-23T06:55:48.641Z,101439.28
2023-01-23T06:58:19.592Z,101444.47
2023-01-23T07:00:47.049Z,101442.81
2023-01-23T07:03:15.988Z,101451.56
2023-01-23T07:05:44.613Z,101445.41
2023-01-23T07:08:12.502Z,101447.22
2023-01-23T07:10:40.798Z,101449.16
2023-01-23T07:13:10.950Z,101446.56
2023-01-23T07:15:47.333Z,101453.09
2023-01-23T07:18:15.994Z,101450.34
2023-01-23T07:20:47.922Z,101450.41
2023-01-23T07:23:16.207Z,101447.13
2023-01-23T07:25:45.064Z,101457.59
2023-01-23T07:28:13.575Z,101447.34
2023-01-23T07:30:42.081Z,101453.44
2023-01-23T07:33:10.613Z,101451.50
2023-01-23T07:35:40.396Z,101454.28
2023-01-23T07:38:08.107Z,101450.72
2023-01-23T07:40:39.583Z,101451.94
2023-01-23T07:43:07.270Z,101452.78
2023-01-23T07:45:36.723Z,101456.25
2023-01-23T07:48:12.513Z,101453.53
2023-01-23T07:50:41.662Z,101449.19
2023-01-23T07:53:09.326Z,101455.13
2023-01-23T07:55:43.183Z,101456.69
2023-01-23T07:58:10.876Z,101468.28
2023-01-23T08:00:46.253Z,101471.78
2023-01-23T08:03:15.033Z,101479.59
2023-01-23T08:05:43.959Z,101481.50
2023-01-23T08:08:13.739Z,101482.09
2023-01-23T08:10:42.227Z,101474.34
2023-01-23T08:13:10.380Z,101478.78
2023-01-23T08:15:46.880Z,101478.94
2023-01-23T08:18:14.438Z,101489.34
2023-01-23T08:20:44.445Z,101486.63
2023-01-23T08:23:12.547Z,101479.81
2023-01-23T08:25:41.005Z,101479.88
2023-01-23T08:28:10.512Z,101480.84
2023-01-23T08:30:38.840Z,101487.91
2023-01-23T08:33:07.047Z,101471.44
2023-01-23T08:35:38.696Z,101478.44
2023-01-23T08:38:08.467Z,101495.03
2023-01-23T08:40:37.412Z,101474.97
2023-01-23T08:43:06.023Z,101484.66
2023-01-23T08:45:35.399Z,101482.13
2023-01-23T08:48:04.182Z,101484.44
2023-01-23T08:50:32.384Z,101482.81
2023-01-23T08:53:01.218Z,101491.50
2023-01-23T08:55:29.593Z,101495.06
2023-01-23T08:58:03.455Z,101486.50
2023-01-23T09:00:33.698Z,101494.25
2023-01-23T09:03:02.061Z,101496.88
2023-01-23T09:05:30.651Z,101508.47
2023-01-23T09:08:01.946Z,101510.09
2023-01-23T09:10:29.575Z,101509.44
2023-01-23T09:12:59.670Z,101515.53
2023-01-23T09:15:27.311Z,101509.22
2023-01-23T09:17:55.060Z,101511.09
2023-01-23T09:20:23.283Z,101512.13
2023-01-23T09:22:52.800Z,101513.94
2023-01-23T09:25:21.732Z,101516.69
2023-01-23T09:27:49.636Z,101514.91
2023-01-23T09:30:17.685Z,101509.91
2023-01-23T09:32:45.565Z,101508.16
2023-01-23T09:35:13.545Z,101516.84
2023-01-23T09:37:59.778Z,101513.38
2023-01-23T09:40:31.609Z,101522.13
2023-01-23T09:43:06.207Z,101518.59
2023-01-23T09:45:34.471Z,101503.94
2023-01-23T09:48:21.534Z,101506.50
2023-01-23T09:51:26.393Z,101509.97
2023-01-23T09:53:59.805Z,101510.00
2023-01-23T09:56:31.970Z,101501.28
2023-01-23T09:59:07.392Z,101501.25
2023-01-23T10:01:35.133Z,101495.88
2023-01-23T10:04:04.208Z,101499.25
2023-01-23T10:06:39.713Z,101510.38
2023-01-23T10:09:43.279Z,101496.50
2023-01-23T10:12:39.772Z,101501.78
2023-01-23T10:15:24.420Z,101500.78
2023-01-23T10:18:03.365Z,101502.63
2023-01-23T10:20:50.473Z,101507.06
2023-01-23T10:23:46.121Z,101502.75
2023-01-23T10:26:22.643Z,101502.81
2023-01-23T10:28:54.714Z,101496.81
2023-01-23T10:31:50.664Z,101495.19
2023-01-23T10:34:35.186Z,101493.88
2023-01-23T10:37:37.699Z,101495.00
2023-01-23T10:40:13.759Z,101488.91
2023-01-23T10:42:41.716Z,101488.63
2023-01-23T10:45:23.137Z,101489.00
2023-01-23T10:47:55.089Z,101474.84
2023-01-23T10:50:43.384Z,101482.13
2023-01-23T10:53:21.203Z,101480.41
2023-01-23T10:55:51.301Z,101484.97
2023-01-23T10:58:41.992Z,101469.41
2023-01-23T11:01:32.950Z,101474.66
2023-01-23T11:04:20.396Z,101475.72
2023-01-23T11:07:08.972Z,101470.53
2023-01-23T11:10:21.217Z,101471.53
2023-01-23T11:12:54.675Z,101462.84
2023-01-23T11:15:30.709Z,101465.53
2023-01-23T11:18:02.520Z,101464.63
2023-01-23T11:20:43.782Z,101472.50
2023-01-23T11:23:14.312Z,101465.63
2023-01-23T11:25:47.625Z,101460.53
2023-01-23T11:28:35.637Z,101466.72
2023-01-23T11:31:22.806Z,101464.09
2023-01-23T11:33:57.037Z,101457.97
2023-01-23T11:36:43.170Z,101464.03
2023-01-23T11:39:22.737Z,101457.94
2023-01-23T11:41:52.642Z,101447.38
2023-01-23T11:44:24.400Z,101454.16
2023-01-23T11:47:29.439Z,101460.16
2023-01-23T11:50:28.338Z,101455.03
2023-01-23T11:53:02.773Z,101459.19
2023-01-23T11:55:57.929Z,101452.25
2023-01-23T11:59:03.840Z,101452.25
2023-01-23T12:01:55.004Z,101443.59
2023-01-23T12:04:47.100Z,101448.75
2023-01-23T12:07:23.540Z,101442.81
2023-01-23T12:09:51.153Z,101449.63
2023-01-23T12:12:51.980Z,101437.44
2023-01-23T12:15:32.928Z,101450.47
2023-01-23T12:18:09.553Z,101452.94
2023-01-23T12:20:49.674Z,101444.25
2023-01-23T12:23:33.507Z,101442.59
2023-01-23T12:26:25.075Z,101447.81
2023-01-23T12:29:11.215Z,101446.13
2023-01-23T12:32:12.492Z,101452.16
2023-01-23T12:34:59.876Z,101456.38
2023-01-23T12:37:53.548Z,101453.91
2023-01-23T12:43:57.590Z,101452.16
2023-01-23T12:47:00.202Z,101455.47
2023-01-23T12:49:49.628Z,101454.94
2023-01-23T12:52:26.199Z,101458.50
2023-01-23T12:55:25.400Z,101456.75
2023-01-23T12:58:06.898Z,101458.28
2023-01-23T13:00:43.150Z,101461.91
2023-01-23T13:03:45.457Z,101461.09
2023-01-23T13:06:50.953Z,101454.94
2023-01-23T13:09:45.449Z,101458.50
2023-01-23T13:12:22.274Z,101455.88
2023-01-23T13:15:15.046Z,101453.19
2023-01-23T13:17:59.463Z,101449.66
2023-01-23T13:20:53.125Z,101457.38
2023-01-23T13:23:29.839Z,101458.19
2023-01-23T13:26:16.629Z,101460.69
2023-01-23T13:28:55.376Z,101465.13
2023-01-23T13:31:47.423Z,101467.81
2023-01-23T13:34:17.965Z,101466.81
2023-01-23T13:36:47.368Z,101471.16
2023-01-23T13:39:22.306Z,101466.81
2023-01-23T13:42:14.605Z,101460.00
2023-01-23T13:45:19.288Z,101459.84
2023-01-23T14:30:31.865Z,101482.50
2023-01-23T14:32:59.657Z,101476.28
2023-01-23T14:35:32.044Z,101482.31
2023-01-23T14:38:05.340Z,101483.78
2023-01-23T14:40:46.790Z,101482.84
2023-01-23T14:43:28.095Z,101481.84
2023-01-23T14:46:25.329Z,101484.75
2023-01-23T14:48:55.684Z,101483.88
2023-01-23T14:51:27.143Z,101481.97
2023-01-23T14:54:06.476Z,101480.28
2023-01-23T14:56:39.842Z,101481.97
2023-01-23T14:59:19.666Z,101484.63
2023-01-23T15:02:13.197Z,101488.63
2023-01-23T15:05:07.521Z,101480.91
2023-01-23T15:07:36.261Z,101477.75
2023-01-23T15:10:05.048Z,101476.00
2023-01-23T15:12:33.718Z,101481.16
2023-01-23T15:15:01.257Z,101482.03
2023-01-23T15:17:28.719Z,101480.31
2023-01-23T15:19:55.935Z,101468.09
2023-01-23T15:22:29.445Z,101469.63
2023-01-23T15:24:57.770Z,101474.84
2023-01-23T15:27:34.076Z,101478.88
2023-01-23T15:30:38.423Z,101469.22
2023-01-23T15:33:26.516Z,101469.22
2023-01-23T15:36:05.747Z,101456.88
2023-01-23T15:38:33.539Z,101464.69
2023-01-23T15:41:09.728Z,101475.56
2023-01-23T15:43:38.563Z,101470.34
2023-01-23T15:46:13.449Z,101459.19
2023-01-23T15:48:41.028Z,101463.66
2023-01-23T15:51:12.577Z,101456.59
2023-01-23T15:53:42.103Z,101453.00
2023-01-23T15:56:29.278Z,101445.88
2023-01-23T15:59:00.994Z,101458.16
2023-01-23T16:01:29.841Z,101465.97
2023-01-23T16:03:57.278Z,101460.34
2023-01-23T16:06:24.764Z,101457.78
2023-01-23T16:09:00.924Z,101462.91
2023-01-23T16:11:35.130Z,101474.28
2023-01-23T16:14:03.389Z,101473.38
2023-01-23T16:16:30.882Z,101485.22
2023-01-23T16:18:57.983Z,101479.47
2023-01-23T16:21:30.602Z,101476.06
2023-01-23T16:23:59.712Z,101476.97
2023-01-23T16:26:28.178Z,101475.16
2023-01-23T16:29:08.706Z,101480.56
2023-01-23T16:31:40.846Z,101472.81
2023-01-23T16:34:08.251Z,101480.56
2023-01-23T16:36:35.762Z,101483.69
2023-01-23T16:39:03.552Z,101482.78
2023-01-23T16:41:32.079Z,101489.09
2023-01-23T16:43:59.623Z,101497.81
2023-01-23T16:46:28.217Z,101499.31
2023-01-23T16:48:57.297Z,101497.56
2023-01-23T16:51:26.128Z,101491.88
2023-01-23T16:53:58.628Z,101490.72
2023-01-23T16:56:37.224Z,101498.72
2023-01-23T16:59:08.440Z,101501.34
2023-01-23T17:01:40.764Z,101497.94
2023-01-23T17:04:08.028Z,101503.09
2023-01-23T17:06:35.892Z,101500.53
2023-01-23T17:09:03.184Z,101506.72
2023-01-23T17:11:36.829Z,101511.66
2023-01-23T17:14:14.874Z,101504.72
2023-01-23T17:16:51.411Z,101504.72
2023-01-23T17:19:31.755Z,101508.28
2023-01-23T17:22:02.215Z,101510.09
2023-01-23T17:24:31.428Z,101514.53
2023-01-23T17:27:00.161Z,101520.56
2023-01-23T17:29:27.806Z,101518.94
2023-01-23T17:31:55.993Z,101518.06
2023-01-23T17:34:28.335Z,101535.34
2023-01-23T17:37:19.961Z,101534.34
2023-01-23T17:39:47.674Z,101528.94
2023-01-23T17:42:15.826Z,101529.41
2023-01-23T17:44:44.157Z,101533.91
2023-01-23T17:47:19.623Z,101532.94
2023-01-23T17:49:57.291Z,101535.63
2023-01-23T17:52:27.768Z,101538.19
2023-01-23T17:54:56.519Z,101536.31
2023-01-23T17:57:24.182Z,101539.00
2023-01-23T17:59:56.512Z,101537.50
2023-01-23T18:02:28.937Z,101532.28
2023-01-23T18:04:58.113Z,101540.63
2023-01-23T18:07:27.590Z,101536.94
2023-01-23T18:09:56.797Z,101542.41
2023-01-23T18:12:41.350Z,101536.22
2023-01-23T18:15:42.284Z,101532.63
2023-01-23T18:18:18.150Z,101531.84
2023-01-23T18:20:48.637Z,101536.16
2023-01-23T18:23:17.042Z,101531.94
2023-01-23T18:25:48.178Z,101532.94
2023-01-23T18:28:24.463Z,101530.03
2023-01-23T18:31:20.786Z,101529.25
2023-01-23T18:34:10.757Z,101528.41
2023-01-23T18:36:49.989Z,101524.88
2023-01-23T18:39:37.257Z,101526.03
2023-01-23T18:42:46.544Z,101536.47
2023-01-23T18:45:23.847Z,101529.56
2023-01-23T18:47:56.452Z,101524.13
2023-01-23T18:50:31.843Z,101527.50
2023-01-23T18:53:35.110Z,101528.25
2023-01-23T18:56:23.200Z,101523.94
2023-01-23T18:59:11.689Z,101523.13
2023-01-23T19:01:51.118Z,101527.44
2023-01-23T19:04:21.791Z,101531.09
2023-01-23T19:06:51.629Z,101535.50
2023-01-23T19:09:22.632Z,101522.59
2023-01-23T19:12:04.871Z,101526.75
2023-01-23T19:14:48.716Z,101526.91
2023-01-23T19:17:53.667Z,101525.88
2023-01-23T19:20:41.221Z,101534.47
2023-01-23T19:23:46.826Z,101530.00
2023-01-23T19:26:18.555Z,101536.00
2023-01-23T19:28:50.618Z,101537.66
2023-01-23T19:31:30.435Z,101540.56
2023-01-23T19:34:00.533Z,101540.38
2023-01-23T19:36:31.505Z,101540.34
2023-01-23T19:39:04.958Z,101535.81
2023-01-23T19:41:38.852Z,101538.56
2023-01-23T19:44:08.451Z,101538.97
2023-01-23T19:46:36.359Z,101540.81
2023-01-23T19:49:07.810Z,101541.81
2023-01-23T19:51:37.957Z,101541.22
2023-01-23T19:54:12.827Z,101539.38
2023-01-23T19:56:41.470Z,101549.25
2023-01-23T19:59:10.159Z,101548.19
2023-01-23T20:01:47.425Z,101550.88
2023-01-23T20:04:21.008Z,101554.34
2023-01-23T20:06:55.038Z,101546.75
2023-01-23T20:09:23.465Z,101556.41
2023-01-23T20:11:53.164Z,101550.97
2023-01-23T20:14:22.906Z,101555.56
2023-01-23T20:16:51.452Z,101551.34
2023-01-23T20:19:20.966Z,101551.50
2023-01-23T20:21:55.775Z,101551.94
2023-01-23T20:24:23.821Z,101562.84
2023-01-23T20:26:53.337Z,101551.66
2023-01-23T20:29:21.876Z,101551.66
2023-01-23T20:31:52.190Z,101550.78
2023-01-23T20:34:20.486Z,101552.63
2023-01-23T20:36:48.366Z,101550.13
2023-01-23T20:39:17.869Z,101557.03
2023-01-23T20:41:53.555Z,101552.91
2023-01-23T20:44:21.615Z,101545.69
2023-01-23T20:46:49.884Z,101553.13
2023-01-23T20:49:17.799Z,101555.41
2023-01-23T20:51:45.960Z,101557.16
2023-01-23T20:54:15.754Z,101556.94
2023-01-23T20:56:50.118Z,101557.03
2023-01-23T20:59:22.308Z,101551.88
2023-01-23T21:02:09.184Z,101550.28
2023-01-23T21:04:42.316Z,101552.50
2023-01-23T21:07:11.836Z,101557.06
2023-01-23T21:09:39.728Z,101549.00
2023-01-23T21:12:10.433Z,101553.41
2023-01-23T21:14:38.191Z,101550.97
2023-01-23T21:17:06.408Z,101548.66
2023-01-23T21:19:40.631Z,101557.47
2023-01-23T21:22:08.701Z,101551.06
2023-01-23T21:24:38.368Z,101549.97
2023-01-23T21:27:08.042Z,101564.34
2023-01-23T21:29:35.583Z,101554.25
2023-01-23T21:32:02.812Z,101562.16
2023-01-23T21:34:32.531Z,101562.47
2023-01-23T21:37:00.788Z,101569.53
2023-01-23T21:39:28.367Z,101571.41
2023-01-23T21:42:09.012Z,101574.13
2023-01-23T21:44:36.429Z,101565.66
2023-01-23T21:47:03.964Z,101567.53
2023-01-23T21:49:31.620Z,101573.59
2023-01-23T21:51:59.976Z,101573.91
2023-01-23T21:54:28.259Z,101570.88
2023-01-23T21:56:56.770Z,101568.28
2023-01-23T21:59:24.129Z,101573.38
2023-01-23T22:01:51.763Z,101565.66
2023-01-23T22:04:23.536Z,101564.78
2023-01-23T22:06:56.853Z,101564.84
2023-01-23T22:09:25.947Z,101560.53
2023-01-23T22:11:57.593Z,101566.75
2023-01-23T22:14:25.094Z,101560.94
2023-01-23T22:16:52.291Z,101559.88
2023-01-23T22:19:25.382Z,101561.34
2023-01-23T22:21:54.821Z,101557.03
2023-01-23T22:24:24.519Z,101563.38
2023-01-23T22:26:52.888Z,101553.56
2023-01-23T22:29:20.354Z,101565.78
2023-01-23T22:31:47.786Z,101554.56
2023-01-23T22:34:16.302Z,101558.06
2023-01-23T22:36:43.777Z,101553.56
2023-01-23T22:39:18.248Z,101557.09
2023-01-23T22:41:47.363Z,101550.03
2023-01-23T22:44:14.904Z,101553.66
2023-01-23T22:46:45.108Z,101551.88
2023-01-23T22:49:12.272Z,101554.53
2023-01-23T22:51:39.656Z,101561.47
2023-01-23T22:54:08.231Z,101564.16
2023-01-23T22:56:35.652Z,101562.47
2023-01-23T22:59:05.238Z,101562.47
2023-01-23T23:01:33.649Z,101559.78
2023-01-23T23:04:01.259Z,101573.44
2023-01-23T23:06:29.634Z,101571.72
2023-01-23T23:08:56.831Z,101568.41
2023-01-23T23:11:29.029Z,101568.91
2023-01-23T23:13:57.544Z,101564.38
2023-01-23T23:16:31.649Z,101561.28
2023-01-23T23:19:01.971Z,101560.34
2023-01-23T23:21:34.624Z,101564.84
2023-01-23T23:24:09.006Z,101563.00
2023-01-23T23:26:36.476Z,101565.53
2023-01-23T23:29:05.458Z,101571.72
2023-01-23T23:31:34.050Z,101567.47
2023-01-23T23:34:01.328Z,101576.06
2023-01-23T23:36:28.774Z,101570.88
2023-01-23T23:38:56.205Z,101570.09
2023-01-23T23:41:23.905Z,101573.50
2023-01-23T23:43:51.444Z,101569.13
2023-01-23T23:46:20.037Z,101557.97
2023-01-23T23:48:48.331Z,101568.34
2023-01-23T23:51:19.002Z,101567.69
2023-01-23T23:53:47.076Z,101566.00
2023-01-23T23:56:21.771Z,101553.03
2023-01-23T23:58:49.353Z,101566.25
